createdAt,value
2022-10-09T00:01:21.945Z,8.00
2022-10-09T00:03:52.539Z,9.10
2022-10-09T00:06:23.901Z,8.40
2022-10-09T00:08:53.632Z,8.30
2022-10-09T00:11:24.844Z,8.97
2022-10-09T00:13:54.059Z,8.20
2022-10-09T00:16:22.899Z,8.20
2022-10-09T00:18:51.745Z,9.13
2022-10-09T00:21:22.746Z,7.00
2022-10-09T00:23:51.756Z,8.83
2022-10-09T00:26:22.155Z,8.10
2022-10-09T00:28:50.834Z,8.13
2022-10-09T00:31:19.067Z,8.30
2022-10-09T00:33:47.689Z,7.60
2022-10-09T00:36:18.429Z,7.27
2022-10-09T00:38:46.711Z,8.33
2022-10-09T00:41:16.761Z,7.97
2022-10-09T00:43:49.378Z,7.63
2022-10-09T00:46:27.426Z,8.17
2022-10-09T00:49:10.985Z,7.67
2022-10-09T00:51:39.966Z,7.43
2022-10-09T00:54:13.371Z,6.63
2022-10-09T00:56:41.990Z,7.03
2022-10-09T00:59:12.545Z,6.63
2022-10-09T01:01:42.203Z,6.83
2022-10-09T01:04:10.416Z,7.20
2022-10-09T01:06:54.114Z,7.17
2022-10-09T01:09:27.268Z,6.47
2022-10-09T01:12:00.330Z,6.23
2022-10-09T01:14:34.889Z,6.90
2022-10-09T01:17:10.216Z,6.27
2022-10-09T01:20:05.586Z,7.20
2022-10-09T01:22:47.635Z,6.77
2022-10-09T01:25:23.236Z,6.37
2022-10-09T01:27:52.825Z,6.37
2022-10-09T01:30:20.998Z,6.70
2022-10-09T01:32:53.249Z,6.63
2022-10-09T01:35:23.078Z,6.57
2022-10-09T01:37:53.481Z,6.20
2022-10-09T01:40:23.098Z,6.23
2022-10-09T01:42:52.887Z,6.40
2022-10-09T01:45:20.911Z,5.80
2022-10-09T01:47:48.940Z,6.90
2022-10-09T01:50:24.686Z,6.50
2022-10-09T01:52:55.634Z,7.13
2022-10-09T01:55:33.630Z,6.97
2022-10-09T01:58:10.544Z,7.37
2022-10-09T02:00:41.544Z,6.90
2022-10-09T02:03:13.114Z,6.97
2022-10-09T02:05:43.338Z,7.03
2022-10-09T02:08:16.271Z,6.60
2022-10-09T02:10:46.826Z,7.30
2022-10-09T02:13:16.506Z,7.00
2022-10-09T02:15:49.554Z,7.50
2022-10-09T02:18:24.576Z,6.87
2022-10-09T02:20:58.250Z,6.67
2022-10-09T02:23:28.286Z,7.13
2022-10-09T02:25:56.721Z,7.33
2022-10-09T02:28:26.683Z,6.90
2022-10-09T02:31:04.073Z,6.83
2022-10-09T02:33:34.001Z,6.43
2022-10-09T02:36:02.715Z,7.20
2022-10-09T02:38:31.166Z,6.73
2022-10-09T02:41:00.226Z,7.57
2022-10-09T02:43:30.131Z,6.40
2022-10-09T02:45:58.315Z,6.20
2022-10-09T02:48:26.307Z,6.57
2022-10-09T02:50:54.236Z,6.77
2022-10-09T02:53:22.278Z,6.97
2022-10-09T02:55:50.252Z,7.27
2022-10-09T02:58:18.269Z,6.77
2022-10-09T03:00:50.729Z,6.43
2022-10-09T03:03:19.757Z,6.73
2022-10-09T03:05:48.696Z,6.97
2022-10-09T03:08:16.834Z,6.90
2022-10-09T03:10:45.317Z,6.73
2022-10-09T03:13:13.249Z,7.10
2022-10-09T03:15:41.492Z,6.70
2022-10-09T03:18:10.912Z,6.63
2022-10-09T03:20:39.587Z,6.33
2022-10-09T03:23:07.620Z,6.90
2022-10-09T03:25:35.973Z,7.07
2022-10-09T03:28:04.268Z,7.77
2022-10-09T03:30:32.313Z,7.37
2022-10-09T03:33:00.391Z,7.73
2022-10-09T03:35:29.726Z,7.53
2022-10-09T03:37:57.718Z,7.83
2022-10-09T03:40:25.738Z,6.97
2022-10-09T03:42:53.668Z,7.47
2022-10-09T03:45:21.662Z,7.20
2022-10-09T03:47:49.628Z,7.13
2022-10-09T03:50:17.875Z,7.60
2022-10-09T03:52:47.566Z,7.33
2022-10-09T03:55:15.982Z,8.07
2022-10-09T03:57:44.143Z,8.43
2022-10-09T04:00:13.639Z,8.40
2022-10-09T04:02:41.708Z,8.30
2022-10-09T04:05:10.437Z,8.37
2022-10-09T04:07:38.489Z,8.20
2022-10-09T04:10:08.679Z,8.33
2022-10-09T04:12:36.856Z,8.40
2022-10-09T04:15:05.568Z,7.83
2022-10-09T04:17:33.531Z,7.33
2022-10-09T04:20:01.530Z,7.53
2022-10-09T04:22:29.639Z,6.70
2022-10-09T04:24:57.612Z,7.57
2022-10-09T04:27:26.988Z,8.00
2022-10-09T04:29:54.985Z,7.60
2022-10-09T04:32:22.957Z,7.70
2022-10-09T04:34:51.121Z,7.30
2022-10-09T04:37:19.177Z,7.30
2022-10-09T04:39:47.199Z,7.87
2022-10-09T04:42:15.173Z,7.73
2022-10-09T04:44:44.695Z,7.43
2022-10-09T04:47:12.624Z,7.80
2022-10-09T04:49:40.841Z,7.80
2022-10-09T04:52:08.857Z,7.60
2022-10-09T04:54:36.829Z,7.07
2022-10-09T04:57:04.801Z,7.43
2022-10-09T04:59:33.973Z,8.13
2022-10-09T05:02:03.812Z,7.73
2022-10-09T05:04:32.990Z,7.97
2022-10-09T05:07:01.117Z,7.03
2022-10-09T05:09:29.328Z,7.53
2022-10-09T05:11:57.351Z,7.40
2022-10-09T05:14:25.713Z,7.53
2022-10-09T05:17:13.232Z,7.77
2022-10-09T05:19:43.723Z,6.83
2022-10-09T05:22:11.697Z,7.20
2022-10-09T05:24:39.697Z,6.50
2022-10-09T05:27:07.752Z,7.10
2022-10-09T05:29:35.765Z,6.87
2022-10-09T05:32:03.823Z,7.50
2022-10-09T05:34:33.837Z,7.50
2022-10-09T05:37:03.609Z,7.17
2022-10-09T05:39:32.477Z,7.37
2022-10-09T05:42:00.491Z,7.93
2022-10-09T05:44:28.492Z,6.70
2022-10-09T05:46:56.677Z,7.57
2022-10-09T05:49:25.030Z,7.20
2022-10-09T05:51:53.054Z,7.13
2022-10-09T05:54:22.943Z,7.07
2022-10-09T05:56:51.048Z,7.20
2022-10-09T05:59:20.558Z,7.37
2022-10-09T06:01:50.981Z,7.50
2022-10-09T06:04:21.932Z,6.40
2022-10-09T06:06:50.128Z,6.80
2022-10-09T06:09:19.213Z,7.40
2022-10-09T06:11:48.726Z,8.37
2022-10-09T06:14:16.727Z,8.70
2022-10-09T06:16:46.916Z,8.70
2022-10-09T06:19:17.384Z,7.93
2022-10-09T06:21:47.233Z,8.20
2022-10-09T06:24:25.568Z,8.23
2022-10-09T06:26:57.670Z,7.50
2022-10-09T06:29:26.091Z,7.70
2022-10-09T06:31:55.183Z,8.27
2022-10-09T06:34:23.744Z,8.70
2022-10-09T06:36:53.240Z,7.30
2022-10-09T06:39:23.123Z,7.80
2022-10-09T06:41:51.145Z,7.87
2022-10-09T06:44:22.371Z,7.97
2022-10-09T06:46:50.952Z,7.77
2022-10-09T06:49:19.426Z,8.07
2022-10-09T06:51:47.671Z,8.17
2022-10-09T06:54:20.214Z,7.03
2022-10-09T06:56:48.864Z,7.60
2022-10-09T06:59:16.970Z,6.93
2022-10-09T07:02:00.127Z,8.23
2022-10-09T07:04:30.479Z,7.33
2022-10-09T07:06:58.552Z,6.67
2022-10-09T07:09:27.157Z,7.33
2022-10-09T07:11:57.358Z,6.83
2022-10-09T07:14:25.799Z,6.23
2022-10-09T07:16:55.945Z,6.20
2022-10-09T07:19:25.001Z,5.70
2022-10-09T07:21:53.893Z,6.03
2022-10-09T07:24:24.868Z,6.40
2022-10-09T07:26:55.163Z,5.53
2022-10-09T07:29:23.217Z,5.90
2022-10-09T07:31:51.373Z,6.17
2022-10-09T07:34:20.762Z,6.17
2022-10-09T07:36:50.057Z,6.97
2022-10-09T07:39:20.166Z,7.00
2022-10-09T07:41:50.571Z,6.40
2022-10-09T07:44:18.708Z,7.30
2022-10-09T07:46:46.865Z,7.10
2022-10-09T07:49:15.280Z,7.20
2022-10-09T07:51:45.389Z,6.97
2022-10-09T07:54:13.574Z,7.73
2022-10-09T07:56:41.770Z,6.38
2022-10-09T07:59:21.246Z,5.97
2022-10-09T08:01:49.357Z,6.00
2022-10-09T08:04:17.697Z,6.25
2022-10-09T08:06:49.460Z,6.57
2022-10-09T08:09:21.082Z,6.03
2022-10-09T08:11:49.441Z,6.10
2022-10-09T08:14:20.901Z,5.93
2022-10-09T08:16:57.022Z,5.38
2022-10-09T08:19:25.722Z,7.82
2022-10-09T08:21:59.077Z,5.28
2022-10-09T08:24:32.040Z,5.68
2022-10-09T08:27:01.238Z,6.30
2022-10-09T08:29:29.327Z,5.72
2022-10-09T08:31:57.366Z,6.55
2022-10-09T08:34:25.504Z,5.45
2022-10-09T08:36:54.902Z,5.38
2022-10-09T08:39:23.564Z,5.40
2022-10-09T08:41:57.783Z,5.50
2022-10-09T08:44:29.207Z,6.45
2022-10-09T08:47:10.158Z,5.65
2022-10-09T08:49:46.288Z,5.30
2022-10-09T08:52:39.718Z,5.40
2022-10-09T08:55:17.960Z,5.15
2022-10-09T08:57:48.114Z,4.30
2022-10-09T09:00:19.251Z,5.75
2022-10-09T09:03:14.992Z,6.15
2022-10-09T09:05:49.933Z,4.85
2022-10-09T09:08:29.900Z,4.78
2022-10-09T09:11:17.048Z,5.32
2022-10-09T09:13:59.022Z,4.88
2022-10-09T09:16:43.083Z,5.05
2022-10-09T09:19:28.260Z,4.65
2022-10-09T09:21:57.218Z,4.50
2022-10-09T09:24:34.969Z,4.82
2022-10-09T09:27:10.916Z,4.65
2022-10-09T09:29:44.336Z,4.30
2022-10-09T09:32:19.058Z,5.00
2022-10-09T09:34:48.331Z,4.45
2022-10-09T09:37:16.972Z,4.25
2022-10-09T09:42:35.015Z,4.38
2022-10-09T09:45:06.660Z,4.68
2022-10-09T09:47:37.803Z,4.38
2022-10-09T09:50:18.524Z,4.18
2022-10-09T09:52:52.157Z,4.00
2022-10-09T09:55:29.023Z,4.68
2022-10-09T09:58:03.097Z,3.55
2022-10-09T10:00:31.670Z,4.22
2022-10-09T10:03:12.766Z,3.92
2022-10-09T10:05:42.286Z,4.18
2022-10-09T10:08:25.535Z,4.30
2022-10-09T10:10:57.713Z,4.00
2022-10-09T10:13:33.803Z,3.83
2022-10-09T10:16:03.150Z,3.30
2022-10-09T10:18:38.099Z,4.32
2022-10-09T10:21:11.938Z,3.42
2022-10-09T10:23:44.108Z,3.63
2022-10-09T10:26:24.420Z,3.45
2022-10-09T10:28:58.667Z,3.45
2022-10-09T10:31:47.895Z,3.78
2022-10-09T10:34:21.327Z,3.38
2022-10-09T10:37:02.439Z,3.47
2022-10-09T10:39:36.948Z,3.33
2022-10-09T10:42:13.497Z,3.80
2022-10-09T10:44:51.375Z,3.38
2022-10-09T10:47:25.448Z,3.17
2022-10-09T10:49:53.983Z,3.25
2022-10-09T10:52:37.142Z,3.10
2022-10-09T10:55:20.982Z,3.47
2022-10-09T10:57:59.617Z,3.20
2022-10-09T11:00:28.761Z,3.35
2022-10-09T11:03:28.947Z,3.38
2022-10-09T11:06:05.823Z,3.17
2022-10-09T11:08:47.775Z,3.28
2022-10-09T11:11:23.753Z,3.35
2022-10-09T11:14:06.383Z,3.45
2022-10-09T11:16:50.399Z,3.22
2022-10-09T11:19:35.293Z,2.75
2022-10-09T11:22:11.245Z,2.72
2022-10-09T11:24:58.345Z,3.60
2022-10-09T11:27:40.385Z,3.42
2022-10-09T11:30:13.759Z,3.42
2022-10-09T11:32:53.985Z,3.25
2022-10-09T11:35:23.299Z,3.67
2022-10-09T11:37:59.907Z,3.67
2022-10-09T11:40:33.382Z,3.17
2022-10-09T11:43:10.882Z,3.20
2022-10-09T11:45:47.994Z,3.10
2022-10-09T11:48:23.402Z,3.10
2022-10-09T11:51:02.012Z,3.15
2022-10-09T11:53:34.532Z,3.30
2022-10-09T11:56:05.187Z,2.70
2022-10-09T11:58:33.860Z,3.47
2022-10-09T12:01:14.933Z,3.05
2022-10-09T12:03:43.399Z,3.13
2022-10-09T12:06:13.495Z,3.55
2022-10-09T12:08:44.590Z,3.63
2022-10-09T12:11:16.595Z,3.25
2022-10-09T12:13:51.569Z,3.20
2022-10-09T12:16:37.437Z,3.28
2022-10-09T12:19:13.316Z,3.05
2022-10-09T12:21:47.593Z,3.70
2022-10-09T12:24:19.117Z,3.30
2022-10-09T12:26:48.359Z,3.40
2022-10-09T12:29:25.887Z,2.90
2022-10-09T12:31:59.636Z,3.40
2022-10-09T12:34:32.255Z,3.28
2022-10-09T12:37:16.070Z,3.42
2022-10-09T12:39:44.909Z,2.92
2022-10-09T12:42:24.844Z,3.67
2022-10-09T12:44:55.371Z,3.58
2022-10-09T12:47:27.747Z,2.90
2022-10-09T12:49:58.137Z,3.35
2022-10-09T12:52:26.333Z,3.47
2022-10-09T12:54:54.417Z,3.05
2022-10-09T12:57:25.361Z,3.50
2022-10-09T12:59:56.295Z,3.25
2022-10-09T13:02:25.796Z,3.70
2022-10-09T13:04:59.531Z,3.50
2022-10-09T13:07:29.946Z,3.00
2022-10-09T13:10:04.047Z,2.97
2022-10-09T13:12:33.615Z,4.30
2022-10-09T13:15:02.596Z,3.60
2022-10-09T13:17:34.444Z,2.97
2022-10-09T13:20:04.121Z,3.25
2022-10-09T13:22:35.125Z,3.80
2022-10-09T13:25:04.201Z,3.25
2022-10-09T13:27:35.330Z,3.25
2022-10-09T13:30:03.316Z,3.15
2022-10-09T13:32:32.926Z,3.03
2022-10-09T13:35:00.866Z,2.97
2022-10-09T13:37:28.904Z,2.95
2022-10-09T13:39:58.590Z,2.95
2022-10-09T13:42:29.487Z,3.20
2022-10-09T13:44:57.477Z,3.17
2022-10-09T13:47:25.540Z,3.53
2022-10-09T13:49:55.611Z,3.10
2022-10-09T13:52:23.535Z,2.95
2022-10-09T13:54:51.712Z,2.95
2022-10-09T13:57:20.081Z,2.58
2022-10-09T13:59:48.132Z,2.80
2022-10-09T14:02:16.344Z,3.10
2022-10-09T14:04:44.418Z,2.90
2022-10-09T14:07:13.883Z,2.83
2022-10-09T14:09:43.038Z,3.20
2022-10-09T14:12:14.329Z,2.70
2022-10-09T14:14:43.702Z,3.05
2022-10-09T14:17:12.007Z,3.00
2022-10-09T14:19:41.294Z,3.40
2022-10-09T14:22:09.491Z,3.45
2022-10-09T14:24:39.178Z,3.65
2022-10-09T14:27:08.003Z,2.58
2022-10-09T14:29:37.628Z,3.20
2022-10-09T14:32:06.211Z,2.80
2022-10-09T14:34:34.160Z,2.75
2022-10-09T14:37:07.344Z,3.15
2022-10-09T14:39:44.368Z,3.53
2022-10-09T14:42:12.373Z,3.75
2022-10-09T14:44:42.457Z,3.00
2022-10-09T14:47:10.540Z,3.80
2022-10-09T14:49:38.714Z,3.17
2022-10-09T14:52:06.911Z,3.40
2022-10-09T14:54:35.323Z,3.28
2022-10-09T14:57:05.821Z,3.58
2022-10-09T14:59:33.816Z,4.00
2022-10-09T15:02:01.957Z,3.38
2022-10-09T15:04:30.621Z,3.53
2022-10-09T15:06:58.731Z,4.50
2022-10-09T15:09:26.851Z,5.10
2022-10-09T15:11:54.955Z,4.43
2022-10-09T15:14:24.461Z,5.22
2022-10-09T15:16:52.460Z,4.57
2022-10-09T15:19:20.635Z,4.63
2022-10-09T15:21:48.679Z,4.72
2022-10-09T15:24:16.706Z,3.85
2022-10-09T15:26:44.694Z,4.00
2022-10-09T15:29:12.979Z,4.72
2022-10-09T15:31:43.967Z,4.32
2022-10-09T15:34:18.002Z,4.18
2022-10-09T15:36:46.304Z,4.60
2022-10-09T15:39:15.030Z,4.53
2022-10-09T15:41:44.729Z,5.03
2022-10-09T15:44:17.428Z,4.60
2022-10-09T15:46:48.708Z,4.70
2022-10-09T15:49:16.742Z,4.88
2022-10-09T15:51:44.865Z,5.00
2022-10-09T15:54:15.550Z,4.68
2022-10-09T15:56:44.043Z,4.70
2022-10-09T15:59:12.923Z,4.85
2022-10-09T16:01:41.149Z,5.05
2022-10-09T16:04:11.012Z,4.90
2022-10-09T16:06:39.174Z,4.90
2022-10-09T16:09:07.256Z,4.50
2022-10-09T16:11:35.493Z,5.57
2022-10-09T16:14:05.775Z,5.03
2022-10-09T16:16:37.245Z,5.55
2022-10-09T16:19:05.761Z,6.63
2022-10-09T16:21:36.072Z,6.55
2022-10-09T16:24:04.286Z,5.68
2022-10-09T16:26:32.708Z,5.68
2022-10-09T16:29:01.217Z,7.70
2022-10-09T16:31:31.856Z,8.10
2022-10-09T16:34:00.146Z,7.57
2022-10-09T16:36:28.520Z,6.55
2022-10-09T16:38:58.729Z,6.22
2022-10-09T16:41:27.403Z,6.43
2022-10-09T16:44:00.013Z,7.72
2022-10-09T16:46:30.683Z,7.13
2022-10-09T16:49:00.120Z,7.97
2022-10-09T16:51:30.873Z,7.03
2022-10-09T16:54:05.353Z,6.95
2022-10-09T16:56:35.049Z,7.47
2022-10-09T16:59:05.844Z,9.25
2022-10-09T17:01:36.125Z,8.50
2022-10-09T17:04:04.133Z,8.88
2022-10-09T17:06:32.135Z,7.93
2022-10-09T17:09:01.826Z,16.45
2022-10-09T17:11:33.074Z,9.38
2022-10-09T17:14:01.156Z,10.13
2022-10-09T17:16:32.861Z,10.40
2022-10-09T17:19:01.508Z,8.32
2022-10-09T17:21:34.146Z,7.28
2022-10-09T17:24:07.795Z,7.28
2022-10-09T17:26:36.341Z,6.45
2022-10-09T17:29:07.514Z,6.40
2022-10-09T17:31:35.822Z,6.63
2022-10-09T17:34:06.002Z,6.93
2022-10-09T17:36:36.575Z,8.02
2022-10-09T17:39:09.063Z,7.97
2022-10-09T17:41:37.344Z,8.80
2022-10-09T17:44:07.129Z,10.30
2022-10-09T17:46:35.368Z,9.00
2022-10-09T17:49:03.704Z,7.78
2022-10-09T17:51:33.652Z,8.50
2022-10-09T17:54:05.859Z,8.57
2022-10-09T17:56:37.803Z,7.05
2022-10-09T17:59:07.579Z,7.70
2022-10-09T18:01:36.268Z,8.63
2022-10-09T18:04:04.819Z,7.35
2022-10-09T18:06:34.895Z,8.35
2022-10-09T18:09:03.407Z,7.97
2022-10-09T18:11:31.376Z,7.18
2022-10-09T18:14:01.585Z,8.40
2022-10-09T18:16:35.714Z,9.02
2022-10-09T18:19:06.650Z,9.95
2022-10-09T18:21:35.751Z,9.27
2022-10-09T18:24:03.924Z,8.68
2022-10-09T18:26:32.109Z,8.98
2022-10-09T18:29:02.281Z,9.20
2022-10-09T18:31:31.258Z,8.95
2022-10-09T18:34:00.212Z,8.15
2022-10-09T18:36:31.753Z,9.82
2022-10-09T18:39:02.304Z,12.10
2022-10-09T18:41:30.671Z,11.50
2022-10-09T18:44:01.316Z,11.98
2022-10-09T18:46:35.339Z,9.98
2022-10-09T18:49:04.187Z,10.30
2022-10-09T18:51:32.584Z,8.63
2022-10-09T18:54:04.143Z,7.47
2022-10-09T18:56:34.057Z,6.85
2022-10-09T18:59:05.175Z,6.82
2022-10-09T19:01:34.738Z,7.00
2022-10-09T19:04:02.897Z,6.60
2022-10-09T19:06:31.132Z,6.28
2022-10-09T19:09:00.930Z,6.25
2022-10-09T19:11:29.340Z,6.88
2022-10-09T19:13:59.751Z,7.20
2022-10-09T19:16:28.362Z,7.40
2022-10-09T19:18:58.629Z,7.55
2022-10-09T19:21:27.172Z,7.83
2022-10-09T19:23:56.561Z,7.90
2022-10-09T19:26:25.358Z,8.20
2022-10-09T19:28:53.484Z,7.73
2022-10-09T19:31:21.930Z,7.20
2022-10-09T19:33:50.824Z,8.60
2022-10-09T19:36:20.726Z,8.93
2022-10-09T19:38:48.799Z,9.23
2022-10-09T19:41:17.494Z,8.65
2022-10-09T19:43:45.942Z,8.10
2022-10-09T19:46:17.294Z,7.97
2022-10-09T19:48:46.608Z,7.97
2022-10-09T19:51:16.436Z,7.90
2022-10-09T19:53:45.869Z,7.37
2022-10-09T19:56:16.513Z,7.87
2022-10-09T19:58:46.437Z,7.30
2022-10-09T20:01:16.053Z,8.17
2022-10-09T20:03:45.450Z,7.93
2022-10-09T20:06:13.803Z,7.97
2022-10-09T20:08:46.347Z,8.23
2022-10-09T20:11:15.288Z,8.57
2022-10-09T20:13:44.175Z,8.30
2022-10-09T20:16:14.967Z,8.67
2022-10-09T20:18:43.936Z,7.87
2022-10-09T20:21:13.426Z,8.40
2022-10-09T20:23:42.018Z,8.03
2022-10-09T20:26:14.103Z,7.47
2022-10-09T20:28:42.595Z,7.17
2022-10-09T20:31:14.859Z,7.23
2022-10-09T20:33:43.888Z,8.43
2022-10-09T20:36:19.910Z,7.13
2022-10-09T20:38:48.109Z,7.17
2022-10-09T20:41:17.683Z,7.63
2022-10-09T20:43:45.806Z,7.37
2022-10-09T20:46:15.516Z,8.07
2022-10-09T20:48:44.248Z,7.60
2022-10-09T20:51:12.368Z,8.23
2022-10-09T20:53:40.391Z,7.13
2022-10-09T20:56:10.134Z,8.13
2022-10-09T20:58:39.790Z,7.50
2022-10-09T21:01:09.172Z,8.50
2022-10-09T21:03:38.599Z,8.40
2022-10-09T21:06:08.155Z,8.20
2022-10-09T21:08:36.982Z,8.80
2022-10-09T21:11:07.186Z,8.57
2022-10-09T21:13:36.156Z,8.27
2022-10-09T21:16:08.596Z,8.10
2022-10-09T21:18:37.734Z,8.53
2022-10-09T21:21:07.707Z,9.33
2022-10-09T21:23:37.180Z,8.23
2022-10-09T21:26:05.398Z,8.77
2022-10-09T21:28:33.414Z,9.00
2022-10-09T21:31:01.460Z,9.00
2022-10-09T21:33:30.847Z,8.10
2022-10-09T21:35:58.965Z,9.20
2022-10-09T21:38:26.926Z,8.80
2022-10-09T21:40:54.947Z,9.30
2022-10-09T21:43:22.926Z,8.70
2022-10-09T21:45:51.559Z,9.80
2022-10-09T21:48:19.658Z,10.10
2022-10-09T21:50:49.104Z,9.73
2022-10-09T21:53:17.117Z,10.83
2022-10-09T21:55:45.234Z,12.73
2022-10-09T21:58:13.197Z,12.10
2022-10-09T22:00:47.408Z,13.37
2022-10-09T22:03:15.387Z,15.40
2022-10-09T22:05:43.460Z,13.83
2022-10-09T22:08:12.839Z,13.70
2022-10-09T22:10:42.864Z,13.87
2022-10-09T22:13:10.942Z,12.87
2022-10-09T22:15:41.654Z,14.10
2022-10-09T22:18:09.727Z,13.00
2022-10-09T22:20:41.741Z,13.83
2022-10-09T22:23:09.846Z,14.67
2022-10-09T22:25:40.326Z,13.10
2022-10-09T22:28:08.605Z,13.77
2022-10-09T22:30:37.058Z,13.97
2022-10-09T22:33:05.239Z,13.03
2022-10-09T22:35:33.227Z,13.50
2022-10-09T22:38:01.226Z,13.70
2022-10-09T22:40:29.187Z,13.43
2022-10-09T22:42:58.644Z,13.23
2022-10-09T22:45:26.651Z,13.73
2022-10-09T22:47:54.625Z,14.93
2022-10-09T22:50:22.624Z,14.40
2022-10-09T22:52:51.744Z,13.97
2022-10-09T22:55:19.865Z,13.83
2022-10-09T22:57:47.873Z,14.57
2022-10-09T23:00:17.696Z,13.80
2022-10-09T23:02:45.653Z,15.47
2022-10-09T23:05:13.647Z,13.83
2022-10-09T23:07:41.561Z,15.13
2022-10-09T23:10:10.254Z,14.63
2022-10-09T23:12:38.292Z,17.07
2022-10-09T23:15:07.409Z,15.47
2022-10-09T23:17:36.784Z,15.80
2022-10-09T23:20:05.113Z,15.93
2022-10-09T23:22:33.105Z,16.57
2022-10-09T23:25:01.172Z,15.40
2022-10-09T23:27:29.321Z,15.00
2022-10-09T23:29:57.306Z,16.00
2022-10-09T23:32:25.292Z,15.17
2022-10-09T23:34:54.814Z,15.40
2022-10-09T23:37:23.413Z,15.50
2022-10-09T23:39:51.405Z,16.13
2022-10-09T23:42:19.606Z,15.63
2022-10-09T23:44:47.648Z,16.07
2022-10-09T23:47:15.574Z,14.83
2022-10-09T23:49:43.667Z,14.43
2022-10-09T23:52:13.013Z,14.53
2022-10-09T23:54:41.494Z,15.10
2022-10-09T23:57:09.555Z,14.97
2022-10-09T23:59:38.729Z,14.67
